sensor_id;sensor_type;location;lat;lon;timestamp;temperature;humidity
55026;DHT22;40925;45.666;18.994;2024-03-17T00:02:22;281.80;2278.40
55026;DHT22;40925;45.666;18.994;2024-03-17T00:04:48;281.80;2278.40
55026;DHT22;40925;45.666;18.994;2024-03-17T00:07:15;281.90;2278.40
55026;DHT22;40925;45.666;18.994;2024-03-17T00:09:42;282.00;2278.40
55026;DHT22;40925;45.666;18.994;2024-03-17T00:12:09;282.00;2278.40
55026;DHT22;40925;45.666;18.994;2024-03-17T00:14:35;282.10;2278.40
55026;DHT22;40925;45.666;18.994;2024-03-17T00:17:02;282.10;2278.40
55026;DHT22;40925;45.666;18.994;2024-03-17T00:19:33;282.10;2278.40
55026;DHT22;40925;45.666;18.994;2024-03-17T00:21:58;282.20;2278.40
55026;DHT22;40925;45.666;18.994;2024-03-17T00:24:25;282.20;2278.40
55026;DHT22;40925;45.666;18.994;2024-03-17T00:26:50;282.20;2278.40
55026;DHT22;40925;45.666;18.994;2024-03-17T00:29:16;282.40;2278.40
55026;DHT22;40925;45.666;18.994;2024-03-17T00:31:42;282.30;2278.40
55026;DHT22;40925;45.666;18.994;2024-03-17T00:34:08;282.30;2278.40
55026;DHT22;40925;45.666;18.994;2024-03-17T00:36:34;282.30;2278.40
55026;DHT22;40925;45.666;18.994;2024-03-17T00:39:00;282.30;2278.40
55026;DHT22;40925;45.666;18.994;2024-03-17T00:41:26;282.30;2278.40
55026;DHT22;40925;45.666;18.994;2024-03-17T00:43:52;282.30;2278.40
55026;DHT22;40925;45.666;18.994;2024-03-17T00:46:21;282.40;2278.40
55026;DHT22;40925;45.666;18.994;2024-03-17T00:48:49;282.40;2278.40
55026;DHT22;40925;45.666;18.994;2024-03-17T00:51:15;282.40;2278.40
55026;DHT22;40925;45.666;18.994;2024-03-17T00:53:41;282.40;2278.40
55026;DHT22;40925;45.666;18.994;2024-03-17T00:56:07;282.40;2278.40
55026;DHT22;40925;45.666;18.994;2024-03-17T00:58:33;282.40;2278.40
55026;DHT22;40925;45.666;18.994;2024-03-17T01:00:58;282.40;2278.40
55026;DHT22;40925;45.666;18.994;2024-03-17T01:03:24;282.40;2278.40
55026;DHT22;40925;45.666;18.994;2024-03-17T01:05:50;282.40;2278.40
55026;DHT22;40925;45.666;18.994;2024-03-17T01:08:18;282.50;2278.40
55026;DHT22;40925;45.666;18.994;2024-03-17T01:10:45;307.20;2304.00
55026;DHT22;40925;45.666;18.994;2024-03-17T01:13:11;307.20;2304.00
55026;DHT22;40925;45.666;18.994;2024-03-17T01:15:38;307.30;2304.00
55026;DHT22;40925;45.666;18.994;2024-03-17T01:18:04;307.30;2304.00
55026;DHT22;40925;45.666;18.994;2024-03-17T01:20:32;307.30;2304.00
55026;DHT22;40925;45.666;18.994;2024-03-17T01:22:57;307.30;2304.00
55026;DHT22;40925;45.666;18.994;2024-03-17T01:25:23;307.40;2304.00
55026;DHT22;40925;45.666;18.994;2024-03-17T01:27:51;307.20;2304.00
55026;DHT22;40925;45.666;18.994;2024-03-17T01:30:17;307.20;2304.00
55026;DHT22;40925;45.666;18.994;2024-03-17T01:32:51;307.20;2304.00
55026;DHT22;40925;45.666;18.994;2024-03-17T01:35:17;307.20;2304.00
55026;DHT22;40925;45.666;18.994;2024-03-17T01:37:43;307.20;2304.00
55026;DHT22;40925;45.666;18.994;2024-03-17T01:40:10;307.20;2304.00
55026;DHT22;40925;45.666;18.994;2024-03-17T01:42:39;282.10;2278.40
55026;DHT22;40925;45.666;18.994;2024-03-17T01:47:46;282.50;2278.40
55026;DHT22;40925;45.666;18.994;2024-03-17T01:50:15;282.50;2278.40
55026;DHT22;40925;45.666;18.994;2024-03-17T01:52:46;282.50;2278.40
55026;DHT22;40925;45.666;18.994;2024-03-17T01:55:12;282.50;2278.40
55026;DHT22;40925;45.666;18.994;2024-03-17T01:57:38;282.50;2278.40
55026;DHT22;40925;45.666;18.994;2024-03-17T02:00:06;307.20;2304.00
55026;DHT22;40925;45.666;18.994;2024-03-17T02:02:34;282.50;2278.40
55026;DHT22;40925;45.666;18.994;2024-03-17T02:05:00;307.20;2304.00
55026;DHT22;40925;45.666;18.994;2024-03-17T02:07:25;307.20;2304.00
55026;DHT22;40925;45.666;18.994;2024-03-17T02:09:51;307.20;2304.00
55026;DHT22;40925;45.666;18.994;2024-03-17T02:12:17;282.50;2278.40
55026;DHT22;40925;45.666;18.994;2024-03-17T02:14:43;307.20;2304.00
55026;DHT22;40925;45.666;18.994;2024-03-17T02:17:08;307.20;2304.00
55026;DHT22;40925;45.666;18.994;2024-03-17T02:19:35;307.20;2304.00
55026;DHT22;40925;45.666;18.994;2024-03-17T02:22:01;282.50;2278.40
55026;DHT22;40925;45.666;18.994;2024-03-17T02:24:26;282.50;2278.40
55026;DHT22;40925;45.666;18.994;2024-03-17T02:26:52;282.50;2278.40
55026;DHT22;40925;45.666;18.994;2024-03-17T02:29:18;282.50;2278.40
55026;DHT22;40925;45.666;18.994;2024-03-17T02:31:43;282.50;2278.40
55026;DHT22;40925;45.666;18.994;2024-03-17T02:34:09;282.40;2278.40
55026;DHT22;40925;45.666;18.994;2024-03-17T02:36:35;282.40;2278.40
55026;DHT22;40925;45.666;18.994;2024-03-17T02:39:01;282.40;2278.40
55026;DHT22;40925;45.666;18.994;2024-03-17T02:41:46;282.40;2278.40
55026;DHT22;40925;45.666;18.994;2024-03-17T02:44:11;282.40;2278.40
55026;DHT22;40925;45.666;18.994;2024-03-17T02:46:37;282.30;2278.40
55026;DHT22;40925;45.666;18.994;2024-03-17T02:49:03;282.30;2278.40
55026;DHT22;40925;45.666;18.994;2024-03-17T02:51:29;282.30;2278.40
55026;DHT22;40925;45.666;18.994;2024-03-17T02:53:55;282.30;2278.40
55026;DHT22;40925;45.666;18.994;2024-03-17T02:56:21;282.30;2278.40
55026;DHT22;40925;45.666;18.994;2024-03-17T02:58:47;282.30;2278.40
55026;DHT22;40925;45.666;18.994;2024-03-17T03:01:14;282.30;2278.40
55026;DHT22;40925;45.666;18.994;2024-03-17T03:03:43;282.40;2278.40
55026;DHT22;40925;45.666;18.994;2024-03-17T03:06:14;282.20;2278.40
55026;DHT22;40925;45.666;18.994;2024-03-17T03:08:41;282.20;2278.40
55026;DHT22;40925;45.666;18.994;2024-03-17T03:11:08;282.20;2278.40
55026;DHT22;40925;45.666;18.994;2024-03-17T03:13:37;282.20;2278.40
55026;DHT22;40925;45.666;18.994;2024-03-17T03:16:09;282.20;2278.40
55026;DHT22;40925;45.666;18.994;2024-03-17T03:18:36;282.10;2278.40
55026;DHT22;40925;45.666;18.994;2024-03-17T03:21:02;282.20;2278.40
55026;DHT22;40925;45.666;18.994;2024-03-17T03:23:28;282.00;2278.40
55026;DHT22;40925;45.666;18.994;2024-03-17T03:25:57;282.10;2278.40
55026;DHT22;40925;45.666;18.994;2024-03-17T03:28:24;282.10;2278.40
55026;DHT22;40925;45.666;18.994;2024-03-17T03:30:51;282.10;2278.40
55026;DHT22;40925;45.666;18.994;2024-03-17T03:33:18;282.10;2278.40
55026;DHT22;40925;45.666;18.994;2024-03-17T03:35:44;282.10;2278.40
55026;DHT22;40925;45.666;18.994;2024-03-17T03:38:11;282.10;2278.40
55026;DHT22;40925;45.666;18.994;2024-03-17T03:40:39;282.20;2278.40
55026;DHT22;40925;45.666;18.994;2024-03-17T03:43:05;282.20;2278.40
55026;DHT22;40925;45.666;18.994;2024-03-17T03:45:31;282.20;2278.40
55026;DHT22;40925;45.666;18.994;2024-03-17T03:47:56;282.20;2278.40
55026;DHT22;40925;45.666;18.994;2024-03-17T03:50:22;282.20;2278.40
55026;DHT22;40925;45.666;18.994;2024-03-17T03:52:48;282.20;2278.40
55026;DHT22;40925;45.666;18.994;2024-03-17T03:55:16;282.10;2278.40
55026;DHT22;40925;45.666;18.994;2024-03-17T03:57:43;282.10;2278.40
55026;DHT22;40925;45.666;18.994;2024-03-17T04:00:12;282.10;2278.40
55026;DHT22;40925;45.666;18.994;2024-03-17T04:02:39;282.10;2278.40
55026;DHT22;40925;45.666;18.994;2024-03-17T04:05:06;282.10;2278.40
55026;DHT22;40925;45.666;18.994;2024-03-17T04:07:32;282.00;2278.40
55026;DHT22;40925;45.666;18.994;2024-03-17T04:09:57;282.00;2278.40
55026;DHT22;40925;45.666;18.994;2024-03-17T04:12:27;281.90;2278.40
55026;DHT22;40925;45.666;18.994;2024-03-17T04:14:53;281.90;2278.40
55026;DHT22;40925;45.666;18.994;2024-03-17T04:17:20;281.90;2278.40
55026;DHT22;40925;45.666;18.994;2024-03-17T04:19:54;281.90;2278.40
55026;DHT22;40925;45.666;18.994;2024-03-17T04:22:20;281.90;2278.40
55026;DHT22;40925;45.666;18.994;2024-03-17T04:24:48;282.00;2278.40
55026;DHT22;40925;45.666;18.994;2024-03-17T04:27:19;282.00;2278.40
55026;DHT22;40925;45.666;18.994;2024-03-17T04:29:47;282.00;2278.40
55026;DHT22;40925;45.666;18.994;2024-03-17T04:32:15;282.40;2278.40
55026;DHT22;40925;45.666;18.994;2024-03-17T04:34:41;282.00;2278.40
55026;DHT22;40925;45.666;18.994;2024-03-17T04:37:09;282.00;2278.40
55026;DHT22;40925;45.666;18.994;2024-03-17T04:39:41;282.00;2278.40
55026;DHT22;40925;45.666;18.994;2024-03-17T04:42:09;282.00;2278.40
55026;DHT22;40925;45.666;18.994;2024-03-17T04:44:34;281.80;2278.40
55026;DHT22;40925;45.666;18.994;2024-03-17T04:47:01;281.90;2278.40
55026;DHT22;40925;45.666;18.994;2024-03-17T04:49:27;281.80;2278.40
55026;DHT22;40925;45.666;18.994;2024-03-17T04:51:53;281.80;2278.40
55026;DHT22;40925;45.666;18.994;2024-03-17T04:54:19;281.70;2278.40
55026;DHT22;40925;45.666;18.994;2024-03-17T04:56:45;281.70;2278.40
55026;DHT22;40925;45.666;18.994;2024-03-17T04:59:10;281.70;2278.40
55026;DHT22;40925;45.666;18.994;2024-03-17T05:01:36;281.70;2278.40
55026;DHT22;40925;45.666;18.994;2024-03-17T05:04:05;281.60;2278.40
55026;DHT22;40925;45.666;18.994;2024-03-17T05:06:31;281.70;2278.40
55026;DHT22;40925;45.666;18.994;2024-03-17T05:08:57;281.60;2278.40
55026;DHT22;40925;45.666;18.994;2024-03-17T05:11:23;281.70;2278.40
55026;DHT22;40925;45.666;18.994;2024-03-17T05:13:52;281.70;2278.40
55026;DHT22;40925;45.666;18.994;2024-03-17T05:16:17;281.80;2278.40
55026;DHT22;40925;45.666;18.994;2024-03-17T05:18:43;281.80;2252.80
55026;DHT22;40925;45.666;18.994;2024-03-17T05:21:09;281.80;2099.20
55026;DHT22;40925;45.666;18.994;2024-03-17T05:23:36;281.80;1971.20
55026;DHT22;40925;45.666;18.994;2024-03-17T05:26:03;281.80;2278.40
55026;DHT22;40925;45.666;18.994;2024-03-17T05:28:32;281.70;2278.40
55026;DHT22;40925;45.666;18.994;2024-03-17T05:30:58;282.00;2278.40
55026;DHT22;40925;45.666;18.994;2024-03-17T05:33:25;282.40;2278.40
55026;DHT22;40925;45.666;18.994;2024-03-17T05:35:52;282.00;2278.40
55026;DHT22;40925;45.666;18.994;2024-03-17T05:38:25;282.00;2278.40
55026;DHT22;40925;45.666;18.994;2024-03-17T05:40:58;282.00;2278.40
55026;DHT22;40925;45.666;18.994;2024-03-17T05:43:28;282.00;2278.40
55026;DHT22;40925;45.666;18.994;2024-03-17T05:45:57;282.00;2278.40
55026;DHT22;40925;45.666;18.994;2024-03-17T05:48:23;282.00;2278.40
55026;DHT22;40925;45.666;18.994;2024-03-17T05:50:52;282.10;2278.40
55026;DHT22;40925;45.666;18.994;2024-03-17T05:53:19;282.10;2278.40
55026;DHT22;40925;45.666;18.994;2024-03-17T05:55:44;282.10;2278.40
55026;DHT22;40925;45.666;18.994;2024-03-17T05:58:10;282.10;2278.40
55026;DHT22;40925;45.666;18.994;2024-03-17T06:00:38;282.20;2278.40
55026;DHT22;40925;45.666;18.994;2024-03-17T06:03:05;282.20;2278.40
55026;DHT22;40925;45.666;18.994;2024-03-17T06:05:35;282.30;2278.40
55026;DHT22;40925;45.666;18.994;2024-03-17T06:08:02;282.30;2278.40
55026;DHT22;40925;45.666;18.994;2024-03-17T06:10:32;282.30;2278.40
55026;DHT22;40925;45.666;18.994;2024-03-17T06:12:58;282.30;2278.40
55026;DHT22;40925;45.666;18.994;2024-03-17T06:15:25;282.30;2278.40
55026;DHT22;40925;45.666;18.994;2024-03-17T06:17:51;282.30;2278.40
55026;DHT22;40925;45.666;18.994;2024-03-17T06:20:24;282.30;2278.40
55026;DHT22;40925;45.666;18.994;2024-03-17T06:22:53;282.30;2278.40
55026;DHT22;40925;45.666;18.994;2024-03-17T06:25:19;282.30;2278.40
55026;DHT22;40925;45.666;18.994;2024-03-17T06:27:44;282.40;2278.40
55026;DHT22;40925;45.666;18.994;2024-03-17T06:30:13;282.40;2278.40
55026;DHT22;40925;45.666;18.994;2024-03-17T06:32:43;282.40;2278.40
55026;DHT22;40925;45.666;18.994;2024-03-17T06:35:14;282.50;2278.40
55026;DHT22;40925;45.666;18.994;2024-03-17T06:37:52;307.20;2304.00
55026;DHT22;40925;45.666;18.994;2024-03-17T06:40:18;282.50;2278.40
55026;DHT22;40925;45.666;18.994;2024-03-17T06:42:44;307.20;2304.00
55026;DHT22;40925;45.666;18.994;2024-03-17T06:45:10;307.20;2304.00
55026;DHT22;40925;45.666;18.994;2024-03-17T06:47:38;307.40;2304.00
55026;DHT22;40925;45.666;18.994;2024-03-17T06:50:06;307.90;2304.00
55026;DHT22;40925;45.666;18.994;2024-03-17T06:52:35;359.10;2329.60
55026;DHT22;40925;45.666;18.994;2024-03-17T06:57:27;486.40;2252.80
55026;DHT22;40925;45.666;18.994;2024-03-17T06:59:53;436.10;2304.00
55026;DHT22;40925;45.666;18.994;2024-03-17T07:02:19;512.00;2176.00
55026;DHT22;40925;45.666;18.994;2024-03-17T07:04:46;691.70;1408.00
55026;DHT22;40925;45.666;18.994;2024-03-17T07:14:32;512.30;1766.40
55026;DHT22;40925;45.666;18.994;2024-03-17T07:16:58;461.20;1945.60
55026;DHT22;40925;45.666;18.994;2024-03-17T07:19:23;436.10;2022.40
55026;DHT22;40925;45.666;18.994;2024-03-17T07:21:49;461.70;2380.80
55026;DHT22;40925;45.666;18.994;2024-03-17T07:24:15;461.00;2073.60
55026;DHT22;40925;45.666;18.994;2024-03-17T07:29:07;589.30;1766.40
55026;DHT22;40925;45.666;18.994;2024-03-17T07:31:34;563.70;1689.60
55026;DHT22;40925;45.666;18.994;2024-03-17T07:33:59;563.60;1689.60
55026;DHT22;40925;45.666;18.994;2024-03-17T07:36:25;512.10;1792.00
55026;DHT22;40925;45.666;18.994;2024-03-17T07:38:51;538.00;1689.60
55026;DHT22;40925;45.666;18.994;2024-03-17T07:41:17;512.00;1689.60
55026;DHT22;40925;45.666;18.994;2024-03-17T07:43:45;461.00;1868.80
55026;DHT22;40925;45.666;18.994;2024-03-17T07:46:12;435.50;1971.20
55026;DHT22;40925;45.666;18.994;2024-03-17T07:48:40;410.30;1996.80
55026;DHT22;40925;45.666;18.994;2024-03-17T07:51:14;410.20;2073.60
55026;DHT22;40925;45.666;18.994;2024-03-17T07:53:44;435.60;2048.00
55026;DHT22;40925;45.666;18.994;2024-03-17T07:56:15;435.80;1971.20
55026;DHT22;40925;45.666;18.994;2024-03-17T07:58:42;460.80;1971.20
55026;DHT22;40925;45.666;18.994;2024-03-17T08:01:10;461.10;1920.00
55026;DHT22;40925;45.666;18.994;2024-03-17T08:03:45;461.10;1945.60
55026;DHT22;40925;45.666;18.994;2024-03-17T08:06:12;461.70;1920.00
55026;DHT22;40925;45.666;18.994;2024-03-17T08:08:38;461.20;1894.40
55026;DHT22;40925;45.666;18.994;2024-03-17T08:11:03;461.40;1868.80
55026;DHT22;40925;45.666;18.994;2024-03-17T08:13:30;461.20;1868.80
55026;DHT22;40925;45.666;18.994;2024-03-17T08:16:09;461.20;1894.40
55026;DHT22;40925;45.666;18.994;2024-03-17T08:18:35;461.10;1894.40
55026;DHT22;40925;45.666;18.994;2024-03-17T08:21:07;461.40;1920.00
55026;DHT22;40925;45.666;18.994;2024-03-17T08:23:33;461.20;1894.40
55026;DHT22;40925;45.666;18.994;2024-03-17T08:26:01;461.40;1868.80
55026;DHT22;40925;45.666;18.994;2024-03-17T08:28:27;461.60;1894.40
55026;DHT22;40925;45.666;18.994;2024-03-17T08:30:58;486.40;1843.20
55026;DHT22;40925;45.666;18.994;2024-03-17T08:33:25;486.70;1843.20
55026;DHT22;40925;45.666;18.994;2024-03-17T08:36:06;486.70;1843.20
55026;DHT22;40925;45.666;18.994;2024-03-17T08:38:34;487.20;1792.00
55026;DHT22;40925;45.666;18.994;2024-03-17T08:41:08;512.10;1792.00
55026;DHT22;40925;45.666;18.994;2024-03-17T08:43:35;512.00;1766.40
55026;DHT22;40925;45.666;18.994;2024-03-17T08:46:03;512.10;1689.60
55026;DHT22;40925;45.666;18.994;2024-03-17T08:48:32;512.20;1664.00
55026;DHT22;40925;45.666;18.994;2024-03-17T08:51:00;512.20;1638.40
55026;DHT22;40925;45.666;18.994;2024-03-17T08:53:27;512.40;1638.40
55026;DHT22;40925;45.666;18.994;2024-03-17T08:55:54;512.20;1612.80
55026;DHT22;40925;45.666;18.994;2024-03-17T08:58:20;512.20;1612.80
55026;DHT22;40925;45.666;18.994;2024-03-17T09:00:46;512.20;1612.80
55026;DHT22;40925;45.666;18.994;2024-03-17T09:03:12;512.40;1587.20
55026;DHT22;40925;45.666;18.994;2024-03-17T09:05:40;512.10;1587.20
55026;DHT22;40925;45.666;18.994;2024-03-17T09:08:07;512.20;1587.20
55026;DHT22;40925;45.666;18.994;2024-03-17T09:10:39;512.20;1587.20
55026;DHT22;40925;45.666;18.994;2024-03-17T09:13:13;512.50;1587.20
55026;DHT22;40925;45.666;18.994;2024-03-17T09:18:18;512.70;1561.60
55026;DHT22;40925;45.666;18.994;2024-03-17T09:20:45;512.90;1561.60
55026;DHT22;40925;45.666;18.994;2024-03-17T09:23:12;512.80;1561.60
55026;DHT22;40925;45.666;18.994;2024-03-17T09:25:38;512.80;1561.60
55026;DHT22;40925;45.666;18.994;2024-03-17T09:28:04;537.80;1587.20
55026;DHT22;40925;45.666;18.994;2024-03-17T09:30:30;538.00;1561.60
55026;DHT22;40925;45.666;18.994;2024-03-17T09:32:56;537.90;1536.00
55026;DHT22;40925;45.666;18.994;2024-03-17T09:35:21;537.80;1536.00
55026;DHT22;40925;45.666;18.994;2024-03-17T09:37:47;537.90;1484.80
55026;DHT22;40925;45.666;18.994;2024-03-17T09:40:14;537.80;1484.80
55026;DHT22;40925;45.666;18.994;2024-03-17T09:42:43;512.60;1459.20
55026;DHT22;40925;45.666;18.994;2024-03-17T09:45:10;512.70;1459.20
55026;DHT22;40925;45.666;18.994;2024-03-17T09:47:42;512.90;1459.20
55026;DHT22;40925;45.666;18.994;2024-03-17T09:50:13;537.60;1484.80
55026;DHT22;40925;45.666;18.994;2024-03-17T09:52:41;537.90;1484.80
55026;DHT22;40925;45.666;18.994;2024-03-17T09:55:16;538.20;1433.60
55026;DHT22;40925;45.666;18.994;2024-03-17T09:57:43;538.00;1459.20
55026;DHT22;40925;45.666;18.994;2024-03-17T10:00:11;537.80;1459.20
55026;DHT22;40925;45.666;18.994;2024-03-17T10:02:47;537.90;1484.80
55026;DHT22;40925;45.666;18.994;2024-03-17T10:05:21;538.10;1408.00
55026;DHT22;40925;45.666;18.994;2024-03-17T10:07:49;538.10;1433.60
55026;DHT22;40925;45.666;18.994;2024-03-17T10:10:16;537.90;1408.00
55026;DHT22;40925;45.666;18.994;2024-03-17T10:12:42;538.30;1408.00
55026;DHT22;40925;45.666;18.994;2024-03-17T10:15:11;538.00;1433.60
55026;DHT22;40925;45.666;18.994;2024-03-17T10:17:38;538.00;1408.00
55026;DHT22;40925;45.666;18.994;2024-03-17T10:20:27;537.80;1408.00
55026;DHT22;40925;45.666;18.994;2024-03-17T10:25:26;537.90;1408.00
55026;DHT22;40925;45.666;18.994;2024-03-17T10:27:56;537.90;1433.60
55026;DHT22;40925;45.666;18.994;2024-03-17T10:30:23;537.90;1433.60
55026;DHT22;40925;45.666;18.994;2024-03-17T10:33:01;538.00;1408.00
55026;DHT22;40925;45.666;18.994;2024-03-17T10:35:38;537.90;1408.00
55026;DHT22;40925;45.666;18.994;2024-03-17T10:38:14;538.10;1408.00
55026;DHT22;40925;45.666;18.994;2024-03-17T10:40:43;538.40;1408.00
55026;DHT22;40925;45.666;18.994;2024-03-17T10:43:10;538.50;1433.60
55026;DHT22;40925;45.666;18.994;2024-03-17T10:45:37;563.30;1433.60
55026;DHT22;40925;45.666;18.994;2024-03-17T10:48:07;538.50;1408.00
55026;DHT22;40925;45.666;18.994;2024-03-17T10:50:36;563.30;1433.60
55026;DHT22;40925;45.666;18.994;2024-03-17T10:53:04;563.20;1433.60
55026;DHT22;40925;45.666;18.994;2024-03-17T10:55:45;563.40;1433.60
55026;DHT22;40925;45.666;18.994;2024-03-17T10:58:31;538.40;1433.60
55026;DHT22;40925;45.666;18.994;2024-03-17T11:01:01;563.20;1459.20
55026;DHT22;40925;45.666;18.994;2024-03-17T11:03:33;563.50;1433.60
55026;DHT22;40925;45.666;18.994;2024-03-17T11:06:02;563.70;1382.40
55026;DHT22;40925;45.666;18.994;2024-03-17T11:08:31;563.50;1408.00
55026;DHT22;40925;45.666;18.994;2024-03-17T11:10:58;563.20;1408.00
55026;DHT22;40925;45.666;18.994;2024-03-17T11:13:33;538.00;1408.00
55026;DHT22;40925;45.666;18.994;2024-03-17T11:16:00;538.50;1433.60
55026;DHT22;40925;45.666;18.994;2024-03-17T11:18:39;537.70;1433.60
55026;DHT22;40925;45.666;18.994;2024-03-17T11:21:19;538.00;1433.60
55026;DHT22;40925;45.666;18.994;2024-03-17T11:24:02;538.20;1433.60
55026;DHT22;40925;45.666;18.994;2024-03-17T11:26:35;512.90;1433.60
55026;DHT22;40925;45.666;18.994;2024-03-17T11:29:01;537.80;1459.20
55026;DHT22;40925;45.666;18.994;2024-03-17T11:36:54;537.90;1408.00
55026;DHT22;40925;45.666;18.994;2024-03-17T11:39:20;538.20;1356.80
55026;DHT22;40925;45.666;18.994;2024-03-17T11:41:51;538.50;1382.40
55026;DHT22;40925;45.666;18.994;2024-03-17T11:46:59;538.40;1305.60
55026;DHT22;40925;45.666;18.994;2024-03-17T11:49:41;563.30;1331.20
55026;DHT22;40925;45.666;18.994;2024-03-17T11:52:13;563.50;1305.60
55026;DHT22;40925;45.666;18.994;2024-03-17T11:54:41;563.30;1331.20
55026;DHT22;40925;45.666;18.994;2024-03-17T11:57:19;538.40;1356.80
55026;DHT22;40925;45.666;18.994;2024-03-17T11:59:48;538.30;1331.20
55026;DHT22;40925;45.666;18.994;2024-03-17T12:04:48;563.60;1356.80
55026;DHT22;40925;45.666;18.994;2024-03-17T12:07:19;563.70;1331.20
55026;DHT22;40925;45.666;18.994;2024-03-17T12:09:50;563.70;1331.20
55026;DHT22;40925;45.666;18.994;2024-03-17T12:12:26;563.40;1331.20
55026;DHT22;40925;45.666;18.994;2024-03-17T12:15:02;563.30;1331.20
55026;DHT22;40925;45.666;18.994;2024-03-17T12:17:29;563.40;1331.20
55026;DHT22;40925;45.666;18.994;2024-03-17T12:19:54;538.00;1331.20
55026;DHT22;40925;45.666;18.994;2024-03-17T12:22:24;538.10;1356.80
55026;DHT22;40925;45.666;18.994;2024-03-17T12:24:53;538.20;1356.80
55026;DHT22;40925;45.666;18.994;2024-03-17T12:27:24;538.50;1331.20
55026;DHT22;40925;45.666;18.994;2024-03-17T12:29:54;563.50;1356.80
55026;DHT22;40925;45.666;18.994;2024-03-17T12:32:22;563.50;1331.20
55026;DHT22;40925;45.666;18.994;2024-03-17T12:34:50;563.30;1305.60
55026;DHT22;40925;45.666;18.994;2024-03-17T12:37:17;563.70;1305.60
55026;DHT22;40925;45.666;18.994;2024-03-17T12:39:44;563.80;1305.60
55026;DHT22;40925;45.666;18.994;2024-03-17T12:42:11;563.90;1280.00
55026;DHT22;40925;45.666;18.994;2024-03-17T12:44:49;564.00;1280.00
55026;DHT22;40925;45.666;18.994;2024-03-17T12:47:17;563.80;1254.40
55026;DHT22;40925;45.666;18.994;2024-03-17T12:49:46;563.80;1280.00
55026;DHT22;40925;45.666;18.994;2024-03-17T12:52:32;563.70;1305.60
55026;DHT22;40925;45.666;18.994;2024-03-17T12:55:08;563.80;1280.00
55026;DHT22;40925;45.666;18.994;2024-03-17T12:58:05;563.80;1280.00
55026;DHT22;40925;45.666;18.994;2024-03-17T13:01:03;563.70;1280.00
55026;DHT22;40925;45.666;18.994;2024-03-17T13:05:55;563.40;1280.00
55026;DHT22;40925;45.666;18.994;2024-03-17T13:08:21;538.30;1305.60
55026;DHT22;40925;45.666;18.994;2024-03-17T13:10:47;538.40;1305.60
55026;DHT22;40925;45.666;18.994;2024-03-17T13:13:13;538.30;1280.00
55026;DHT22;40925;45.666;18.994;2024-03-17T13:15:43;563.30;1305.60
55026;DHT22;40925;45.666;18.994;2024-03-17T13:18:09;563.30;1280.00
55026;DHT22;40925;45.666;18.994;2024-03-17T13:20:35;538.50;1254.40
55026;DHT22;40925;45.666;18.994;2024-03-17T13:23:01;563.20;1280.00
55026;DHT22;40925;45.666;18.994;2024-03-17T13:25:28;538.10;1280.00
55026;DHT22;40925;45.666;18.994;2024-03-17T13:28:04;537.80;1305.60
55026;DHT22;40925;45.666;18.994;2024-03-17T13:30:32;538.40;1280.00
55026;DHT22;40925;45.666;18.994;2024-03-17T13:32:59;538.40;1254.40
55026;DHT22;40925;45.666;18.994;2024-03-17T13:35:26;538.50;1228.80
55026;DHT22;40925;45.666;18.994;2024-03-17T13:44:51;538.10;1228.80
55026;DHT22;40925;45.666;18.994;2024-03-17T13:47:18;537.90;1280.00
55026;DHT22;40925;45.666;18.994;2024-03-17T13:49:44;538.10;1254.40
55026;DHT22;40925;45.666;18.994;2024-03-17T13:52:13;538.10;1228.80
55026;DHT22;40925;45.666;18.994;2024-03-17T13:54:39;538.10;1254.40
55026;DHT22;40925;45.666;18.994;2024-03-17T13:57:05;538.40;1280.00
55026;DHT22;40925;45.666;18.994;2024-03-17T13:59:31;538.40;1254.40
55026;DHT22;40925;45.666;18.994;2024-03-17T14:01:58;538.40;1228.80
55026;DHT22;40925;45.666;18.994;2024-03-17T14:04:24;563.40;1664.00
55026;DHT22;40925;45.666;18.994;2024-03-17T14:06:50;563.30;1254.40
55026;DHT22;40925;45.666;18.994;2024-03-17T14:09:17;563.30;1254.40
55026;DHT22;40925;45.666;18.994;2024-03-17T14:11:46;563.40;1254.40
55026;DHT22;40925;45.666;18.994;2024-03-17T14:14:12;563.60;1228.80
55026;DHT22;40925;45.666;18.994;2024-03-17T14:16:38;538.20;1228.80
55026;DHT22;40925;45.666;18.994;2024-03-17T14:19:10;538.40;1254.40
55026;DHT22;40925;45.666;18.994;2024-03-17T14:21:36;538.50;1228.80
55026;DHT22;40925;45.666;18.994;2024-03-17T14:24:03;563.40;1254.40
55026;DHT22;40925;45.666;18.994;2024-03-17T14:26:33;563.20;1228.80
55026;DHT22;40925;45.666;18.994;2024-03-17T14:29:02;563.30;1228.80
55026;DHT22;40925;45.666;18.994;2024-03-17T14:31:35;563.40;1203.20
55026;DHT22;40925;45.666;18.994;2024-03-17T14:34:04;538.40;1177.60
55026;DHT22;40925;45.666;18.994;2024-03-17T14:36:33;563.20;1228.80
55026;DHT22;40925;45.666;18.994;2024-03-17T14:38:59;538.40;1203.20
55026;DHT22;40925;45.666;18.994;2024-03-17T14:41:30;563.20;1203.20
55026;DHT22;40925;45.666;18.994;2024-03-17T14:43:57;538.40;1203.20
55026;DHT22;40925;45.666;18.994;2024-03-17T14:46:26;538.40;1228.80
55026;DHT22;40925;45.666;18.994;2024-03-17T14:48:53;563.30;1228.80
55026;DHT22;40925;45.666;18.994;2024-03-17T14:51:20;538.50;1203.20
55026;DHT22;40925;45.666;18.994;2024-03-17T14:53:49;538.30;1228.80
55026;DHT22;40925;45.666;18.994;2024-03-17T14:56:18;537.80;1228.80
55026;DHT22;40925;45.666;18.994;2024-03-17T14:58:44;512.70;1228.80
55026;DHT22;40925;45.666;18.994;2024-03-17T15:01:12;512.20;1280.00
55026;DHT22;40925;45.666;18.994;2024-03-17T15:03:38;512.00;1280.00
55026;DHT22;40925;45.666;18.994;2024-03-17T15:06:13;486.90;1305.60
55026;DHT22;40925;45.666;18.994;2024-03-17T15:08:41;486.70;1331.20
55026;DHT22;40925;45.666;18.994;2024-03-17T15:14:31;486.50;1356.80
55026;DHT22;40925;45.666;18.994;2024-03-17T15:16:58;486.50;1356.80
55026;DHT22;40925;45.666;18.994;2024-03-17T15:19:24;486.60;1356.80
55026;DHT22;40925;45.666;18.994;2024-03-17T15:21:51;486.60;1331.20
55026;DHT22;40925;45.666;18.994;2024-03-17T15:24:19;486.40;1356.80
55026;DHT22;40925;45.666;18.994;2024-03-17T15:26:53;461.60;1382.40